createdAt,value
2023-05-13T00:02:00.061Z,12.85
2023-05-13T00:04:26.985Z,13.73
2023-05-13T00:06:53.898Z,11.57
2023-05-13T00:09:20.766Z,13.85
2023-05-13T00:11:47.636Z,13.18
2023-05-13T00:14:14.694Z,13.02
2023-05-13T00:16:42.058Z,11.70
2023-05-13T00:19:09.441Z,11.75
2023-05-13T00:21:36.415Z,10.15
2023-05-13T00:24:03.441Z,12.90
2023-05-13T00:26:30.315Z,13.18
2023-05-13T00:28:57.202Z,9.60
2023-05-13T00:31:24.453Z,13.00
2023-05-13T00:33:51.389Z,14.25
2023-05-13T00:36:18.322Z,10.95
2023-05-13T00:38:45.313Z,11.80
2023-05-13T00:41:13.013Z,12.43
2023-05-13T00:43:39.878Z,12.93
2023-05-13T00:46:07.234Z,13.07
2023-05-13T00:48:34.666Z,16.17
2023-05-13T00:51:01.550Z,13.98
2023-05-13T00:53:28.567Z,10.48
2023-05-13T00:55:55.988Z,13.23
2023-05-13T00:58:22.912Z,17.10
2023-05-13T01:01:05.579Z,14.13
2023-05-13T01:04:00.084Z,14.00
2023-05-13T01:06:56.020Z,13.88
2023-05-13T01:12:08.584Z,15.23
2023-05-13T01:14:45.286Z,14.18
2023-05-13T01:17:19.170Z,18.70
2023-05-13T01:19:53.056Z,14.70
2023-05-13T01:22:19.965Z,13.80
2023-05-13T01:24:47.012Z,13.38
2023-05-13T01:27:14.664Z,11.02
2023-05-13T01:29:41.643Z,11.70
2023-05-13T01:32:10.670Z,15.05
2023-05-13T01:34:39.884Z,12.20
2023-05-13T01:37:06.950Z,12.35
2023-05-13T01:39:37.813Z,15.95
2023-05-13T01:42:05.013Z,13.27
2023-05-13T01:44:32.032Z,9.90
2023-05-13T01:46:58.968Z,13.30
2023-05-13T01:49:26.282Z,12.63
2023-05-13T01:51:53.242Z,11.20
2023-05-13T01:54:20.207Z,11.60
2023-05-13T01:56:47.097Z,13.35
2023-05-13T01:59:14.034Z,13.15
2023-05-13T02:01:41.375Z,13.75
2023-05-13T02:04:08.456Z,13.50
2023-05-13T02:06:35.517Z,14.25
2023-05-13T02:09:02.453Z,13.93
2023-05-13T02:11:29.397Z,17.58
2023-05-13T02:13:56.452Z,15.65
2023-05-13T02:16:23.504Z,15.43
2023-05-13T02:18:50.575Z,15.27
2023-05-13T02:21:17.633Z,12.90
2023-05-13T02:23:44.713Z,13.82
2023-05-13T02:26:11.597Z,15.57
2023-05-13T02:28:38.598Z,17.02
2023-05-13T02:31:05.640Z,17.13
2023-05-13T02:33:32.621Z,16.10
2023-05-13T02:35:59.535Z,15.20
2023-05-13T02:38:26.443Z,16.85
2023-05-13T02:40:53.336Z,13.88
2023-05-13T02:43:20.716Z,18.27
2023-05-13T02:45:48.298Z,18.17
2023-05-13T02:48:16.147Z,17.33
2023-05-13T02:50:43.108Z,17.42
2023-05-13T02:53:10.007Z,19.73
2023-05-13T02:55:37.263Z,16.23
2023-05-13T02:58:04.874Z,16.40
2023-05-13T03:00:31.860Z,17.55
2023-05-13T03:02:59.140Z,14.68
2023-05-13T03:05:27.839Z,15.95
2023-05-13T03:07:58.064Z,19.27
2023-05-13T03:10:25.130Z,15.68
2023-05-13T03:12:52.100Z,17.45
2023-05-13T03:15:19.077Z,13.93
2023-05-13T03:17:46.105Z,18.60
2023-05-13T03:20:13.523Z,18.95
2023-05-13T03:22:40.805Z,17.40
2023-05-13T03:25:08.685Z,18.90
2023-05-13T03:27:36.007Z,16.63
2023-05-13T03:30:03.070Z,15.88
2023-05-13T03:32:31.762Z,17.38
2023-05-13T03:35:01.048Z,16.15
2023-05-13T03:37:28.033Z,17.73
2023-05-13T03:39:54.974Z,16.83
2023-05-13T03:42:23.555Z,17.17
2023-05-13T03:44:51.429Z,15.60
2023-05-13T03:47:18.409Z,17.48
2023-05-13T03:49:45.533Z,16.10
2023-05-13T03:52:12.423Z,14.20
2023-05-13T03:54:39.514Z,16.02
2023-05-13T03:57:08.494Z,17.00
2023-05-13T03:59:35.391Z,16.00
2023-05-13T04:02:02.338Z,17.30
2023-05-13T04:04:29.311Z,13.95
2023-05-13T04:06:56.295Z,16.30
2023-05-13T04:09:23.283Z,17.75
2023-05-13T04:11:50.292Z,15.00
2023-05-13T04:14:17.203Z,14.20
2023-05-13T04:16:44.129Z,16.02
2023-05-13T04:19:11.906Z,16.33
2023-05-13T04:21:38.904Z,15.00
2023-05-13T04:24:06.593Z,16.55
2023-05-13T04:26:33.677Z,18.65
2023-05-13T04:29:00.672Z,15.30
2023-05-13T04:31:27.652Z,15.35
2023-05-13T04:33:54.589Z,14.23
2023-05-13T04:36:21.493Z,15.63
2023-05-13T04:38:48.448Z,14.18
2023-05-13T04:41:15.357Z,16.13
2023-05-13T04:43:42.280Z,17.75
2023-05-13T04:46:09.335Z,18.40
2023-05-13T04:48:36.384Z,19.90
2023-05-13T04:51:04.018Z,16.40
2023-05-13T04:53:31.373Z,15.65
2023-05-13T04:56:01.139Z,14.93
2023-05-13T04:58:28.889Z,16.60
2023-05-13T05:00:55.870Z,17.20
2023-05-13T05:03:22.857Z,14.77
2023-05-13T05:05:49.976Z,13.43
2023-05-13T05:08:17.321Z,15.98
2023-05-13T05:10:44.270Z,16.60
2023-05-13T05:13:11.385Z,15.52
2023-05-13T05:15:38.311Z,17.67
2023-05-13T05:18:06.897Z,16.48
2023-05-13T05:20:33.958Z,15.50
2023-05-13T05:23:00.866Z,14.48
2023-05-13T05:25:28.837Z,13.90
2023-05-13T05:27:55.784Z,13.63
2023-05-13T05:30:22.995Z,15.13
2023-05-13T05:32:50.304Z,12.40
2023-05-13T05:35:19.922Z,15.02
2023-05-13T05:37:46.941Z,13.85
2023-05-13T05:40:14.344Z,13.88
2023-05-13T05:42:41.291Z,14.13
2023-05-13T05:45:09.021Z,13.10
2023-05-13T05:47:35.992Z,11.52
2023-05-13T05:50:02.957Z,14.77
2023-05-13T05:52:29.856Z,15.52
2023-05-13T05:54:56.836Z,12.38
2023-05-13T05:57:23.807Z,12.75
2023-05-13T05:59:51.557Z,14.73
2023-05-13T06:02:18.559Z,15.13
2023-05-13T06:04:45.500Z,13.27
2023-05-13T06:07:12.484Z,12.52
2023-05-13T06:09:39.469Z,11.65
2023-05-13T06:12:06.902Z,14.20
2023-05-13T06:14:33.775Z,15.10
2023-05-13T06:17:00.884Z,12.48
2023-05-13T06:19:27.828Z,13.70
2023-05-13T06:21:54.757Z,13.98
2023-05-13T06:24:21.818Z,13.40
2023-05-13T06:26:48.717Z,15.77
2023-05-13T06:29:15.635Z,10.35
2023-05-13T06:31:42.577Z,11.52
2023-05-13T06:34:16.649Z,12.02
2023-05-13T06:36:44.476Z,12.07
2023-05-13T06:39:12.735Z,10.48
2023-05-13T06:41:42.669Z,11.98
2023-05-13T06:44:10.210Z,10.82
2023-05-13T06:46:37.204Z,9.52
2023-05-13T06:49:04.121Z,11.73
2023-05-13T06:51:33.047Z,11.90
2023-05-13T06:54:00.067Z,10.95
2023-05-13T06:56:27.072Z,10.65
2023-05-13T06:58:54.000Z,10.15
2023-05-13T07:01:21.035Z,10.55
2023-05-13T07:03:48.063Z,11.43
2023-05-13T07:06:15.303Z,13.38
2023-05-13T07:08:42.241Z,13.50
2023-05-13T07:11:09.256Z,13.90
2023-05-13T07:13:36.194Z,18.10
2023-05-13T07:16:03.347Z,14.90
2023-05-13T07:18:30.448Z,13.32
2023-05-13T07:20:57.527Z,13.80
2023-05-13T07:23:24.981Z,12.80
2023-05-13T07:25:52.378Z,12.88
2023-05-13T07:28:22.097Z,13.25
2023-05-13T07:30:49.158Z,13.50
2023-05-13T07:33:16.117Z,11.68
2023-05-13T07:35:43.144Z,11.90
2023-05-13T07:38:11.433Z,11.43
2023-05-13T07:40:38.944Z,10.93
2023-05-13T07:43:06.249Z,11.75
2023-05-13T07:45:33.328Z,13.25
2023-05-13T07:48:00.557Z,11.95
2023-05-13T07:50:27.987Z,12.27
2023-05-13T07:52:55.070Z,12.18
2023-05-13T07:55:23.151Z,12.48
2023-05-13T07:57:50.247Z,11.55
2023-05-13T08:00:17.572Z,14.57
2023-05-13T08:02:45.025Z,11.30
2023-05-13T08:05:12.578Z,12.65
2023-05-13T08:07:39.578Z,11.18
2023-05-13T08:10:07.411Z,11.75
2023-05-13T08:12:34.459Z,11.85
2023-05-13T08:15:04.161Z,14.38
2023-05-13T08:17:31.117Z,12.63
2023-05-13T08:19:58.969Z,13.02
2023-05-13T08:22:26.976Z,11.55
2023-05-13T08:24:54.422Z,13.65
2023-05-13T08:27:21.370Z,12.35
2023-05-13T08:29:48.300Z,13.40
2023-05-13T08:32:15.272Z,11.57
2023-05-13T08:34:42.293Z,12.18
2023-05-13T08:37:09.192Z,14.95
2023-05-13T08:39:36.164Z,10.20
2023-05-13T08:42:04.525Z,13.20
2023-05-13T08:44:33.175Z,10.50
2023-05-13T08:47:33.268Z,11.65
2023-05-13T08:50:01.551Z,12.07
2023-05-13T08:52:28.690Z,12.32
2023-05-13T08:54:59.859Z,13.65
2023-05-13T08:57:28.135Z,11.15
2023-05-13T08:59:55.363Z,10.77
2023-05-13T09:02:23.523Z,9.95
2023-05-13T09:04:55.083Z,12.68
2023-05-13T09:07:22.545Z,12.50
2023-05-13T09:09:50.165Z,9.43
2023-05-13T09:12:42.950Z,11.80
2023-05-13T09:15:13.029Z,9.23
2023-05-13T09:17:45.855Z,11.23
2023-05-13T09:20:15.501Z,14.05
2023-05-13T09:22:53.297Z,8.95
2023-05-13T09:25:24.750Z,12.27
2023-05-13T09:28:04.091Z,10.40
2023-05-13T09:30:43.898Z,8.75
2023-05-13T09:33:16.208Z,9.05
2023-05-13T09:35:53.176Z,10.65
2023-05-13T09:38:34.921Z,9.57
2023-05-13T09:41:03.476Z,8.63
2023-05-13T09:43:34.225Z,11.27
2023-05-13T09:46:05.956Z,10.75
2023-05-13T09:48:34.442Z,9.90
2023-05-13T09:51:01.741Z,9.05
2023-05-13T09:53:29.191Z,11.02
2023-05-13T09:55:58.428Z,11.18
2023-05-13T09:58:31.318Z,9.88
2023-05-13T10:00:58.986Z,11.05
2023-05-13T10:03:26.370Z,9.45
2023-05-13T10:05:53.998Z,10.63
2023-05-13T10:08:22.552Z,9.70
2023-05-13T10:10:54.947Z,10.05
2023-05-13T10:13:25.259Z,13.95
2023-05-13T10:15:55.572Z,9.00
2023-05-13T10:18:29.371Z,9.30
2023-05-13T10:20:56.918Z,12.40
2023-05-13T10:23:24.787Z,8.30
2023-05-13T10:25:54.510Z,10.68
2023-05-13T10:28:21.803Z,9.65
2023-05-13T10:30:52.344Z,8.90
2023-05-13T10:33:30.816Z,8.15
2023-05-13T10:36:34.266Z,7.68
2023-05-13T10:39:52.448Z,7.60
2023-05-13T10:42:43.528Z,7.32
2023-05-13T10:45:11.482Z,7.35
2023-05-13T10:47:39.130Z,7.10
2023-05-13T10:50:23.520Z,9.63
2023-05-13T10:52:51.475Z,7.27
2023-05-13T10:55:20.878Z,7.78
2023-05-13T10:58:12.430Z,9.50
2023-05-13T11:00:43.177Z,8.20
2023-05-13T11:03:10.283Z,7.85
2023-05-13T11:05:59.541Z,8.35
2023-05-13T11:08:47.502Z,8.95
2023-05-13T11:11:35.132Z,9.48
2023-05-13T11:14:21.028Z,11.02
2023-05-13T11:16:54.880Z,9.30
2023-05-13T11:19:25.584Z,7.45
2023-05-13T11:21:58.638Z,9.52
2023-05-13T11:24:26.782Z,9.77
2023-05-13T11:26:57.008Z,9.70
2023-05-13T11:29:37.627Z,13.15
2023-05-13T11:32:07.092Z,9.07
2023-05-13T11:34:34.738Z,8.40
2023-05-13T11:37:04.675Z,9.38
2023-05-13T11:39:33.744Z,8.02
2023-05-13T11:42:05.381Z,7.32
2023-05-13T11:44:34.832Z,7.07
2023-05-13T11:47:08.832Z,7.38
2023-05-13T11:49:44.834Z,6.00
2023-05-13T11:52:20.421Z,6.88
2023-05-13T11:54:54.348Z,8.05
2023-05-13T11:57:26.301Z,5.72
2023-05-13T11:59:56.925Z,7.10
2023-05-13T12:02:30.402Z,11.20
2023-05-13T12:05:04.555Z,7.47
2023-05-13T12:07:32.957Z,7.10
2023-05-13T12:10:02.440Z,8.10
2023-05-13T12:12:31.759Z,9.48
2023-05-13T12:15:08.653Z,5.35
2023-05-13T12:17:36.014Z,7.50
2023-05-13T12:20:17.870Z,5.95
2023-05-13T12:22:44.762Z,8.27
2023-05-13T12:25:39.744Z,8.27
2023-05-13T12:28:18.854Z,5.25
2023-05-13T12:30:56.759Z,6.18
2023-05-13T12:33:41.476Z,7.13
2023-05-13T12:36:36.437Z,9.50
2023-05-13T12:39:09.893Z,7.28
2023-05-13T12:41:40.079Z,7.93
2023-05-13T12:44:16.481Z,5.88
2023-05-13T12:47:01.563Z,7.82
2023-05-13T12:49:28.656Z,5.95
2023-05-13T12:51:57.031Z,6.55
2023-05-13T12:54:23.968Z,6.57
2023-05-13T12:56:51.022Z,7.78
2023-05-13T12:59:19.393Z,10.20
2023-05-13T13:01:48.415Z,7.85
2023-05-13T13:04:17.098Z,6.20
2023-05-13T13:06:44.310Z,11.60
2023-05-13T13:09:11.328Z,6.63
2023-05-13T13:11:39.457Z,6.57
2023-05-13T13:14:06.468Z,7.43
2023-05-13T13:16:33.533Z,7.68
2023-05-13T13:19:01.933Z,6.40
2023-05-13T13:21:29.202Z,7.93
2023-05-13T13:23:56.137Z,6.90
2023-05-13T13:26:25.694Z,6.20
2023-05-13T13:28:53.026Z,6.70
2023-05-13T13:31:20.337Z,7.13
2023-05-13T13:33:47.247Z,7.13
2023-05-13T13:36:14.183Z,7.93
2023-05-13T13:38:41.156Z,6.90
2023-05-13T13:41:08.110Z,7.90
2023-05-13T13:43:35.047Z,6.78
2023-05-13T13:46:02.014Z,6.88
2023-05-13T13:48:29.039Z,6.68
2023-05-13T13:50:56.168Z,5.10
2023-05-13T13:53:23.114Z,7.50
2023-05-13T13:55:50.126Z,6.93
2023-05-13T13:58:17.098Z,6.25
2023-05-13T14:00:44.078Z,7.60
2023-05-13T14:03:11.066Z,5.55
2023-05-13T14:05:38.122Z,9.15
2023-05-13T14:08:05.388Z,6.53
2023-05-13T14:10:32.389Z,7.55
2023-05-13T14:12:59.424Z,8.65
2023-05-13T14:15:28.991Z,6.15
2023-05-13T14:17:56.265Z,6.80
2023-05-13T14:20:25.211Z,8.98
2023-05-13T14:22:52.195Z,6.93
2023-05-13T14:25:19.192Z,8.20
2023-05-13T14:27:46.084Z,7.13
2023-05-13T14:30:13.478Z,8.52
2023-05-13T14:32:45.345Z,8.35
2023-05-13T14:35:13.389Z,7.85
2023-05-13T14:37:41.160Z,8.00
2023-05-13T14:40:09.778Z,7.85
2023-05-13T14:42:36.845Z,9.52
2023-05-13T14:45:04.341Z,9.70
2023-05-13T14:47:31.274Z,8.95
2023-05-13T14:49:58.604Z,8.70
2023-05-13T14:52:25.782Z,7.97
2023-05-13T14:54:52.717Z,5.95
2023-05-13T14:57:19.748Z,6.68
2023-05-13T14:59:46.782Z,6.93
2023-05-13T15:02:17.562Z,8.50
2023-05-13T15:04:44.895Z,9.73
2023-05-13T15:07:11.842Z,5.93
2023-05-13T15:09:38.782Z,5.90
2023-05-13T15:12:06.968Z,6.63
2023-05-13T15:14:33.923Z,7.05
2023-05-13T15:17:00.920Z,9.77
2023-05-13T15:19:28.098Z,7.28
2023-05-13T15:21:55.007Z,7.88
2023-05-13T15:24:21.924Z,7.18
2023-05-13T15:26:50.852Z,7.15
2023-05-13T15:29:17.917Z,7.47
2023-05-13T15:31:44.862Z,6.88
2023-05-13T15:34:11.790Z,9.45
2023-05-13T15:36:38.696Z,7.07
2023-05-13T15:39:05.656Z,8.32
2023-05-13T15:41:32.662Z,7.75
2023-05-13T15:43:59.551Z,6.88
2023-05-13T15:46:26.713Z,6.97
2023-05-13T15:48:53.692Z,7.47
2023-05-13T15:51:21.013Z,10.55
2023-05-13T15:53:47.918Z,6.85
2023-05-13T15:56:14.959Z,6.68
2023-05-13T15:58:42.045Z,6.85
2023-05-13T16:01:08.989Z,5.07
2023-05-13T16:03:38.882Z,6.45
2023-05-13T16:06:06.185Z,6.75
2023-05-13T16:08:33.173Z,6.85
2023-05-13T16:11:00.262Z,8.68
2023-05-13T16:13:27.225Z,6.65
2023-05-13T16:15:54.525Z,6.05
2023-05-13T16:18:21.776Z,7.80
2023-05-13T16:20:48.713Z,6.72
2023-05-13T16:23:15.907Z,7.32
2023-05-13T16:25:43.429Z,8.00
2023-05-13T16:28:11.165Z,6.40
2023-05-13T16:30:38.861Z,8.75
2023-05-13T16:33:05.908Z,6.18
2023-05-13T16:35:32.941Z,6.20
2023-05-13T16:37:59.842Z,7.07
2023-05-13T16:40:26.769Z,6.85
2023-05-13T16:42:54.724Z,6.90
2023-05-13T16:45:23.500Z,7.45
2023-05-13T16:47:50.631Z,7.53
2023-05-13T16:50:17.589Z,9.10
2023-05-13T16:52:44.570Z,7.38
2023-05-13T16:55:13.658Z,7.55
2023-05-13T16:57:40.826Z,8.63
2023-05-13T17:00:08.649Z,6.90
2023-05-13T17:02:35.798Z,8.75
2023-05-13T17:05:02.829Z,6.97
2023-05-13T17:07:29.891Z,6.40
2023-05-13T17:09:56.963Z,5.95
2023-05-13T17:12:23.956Z,7.53
2023-05-13T17:14:50.869Z,6.45
2023-05-13T17:17:17.788Z,6.07
2023-05-13T17:19:44.794Z,6.60
2023-05-13T17:22:11.785Z,7.93
2023-05-13T17:24:40.079Z,8.27
2023-05-13T17:27:08.362Z,7.45
2023-05-13T17:29:35.304Z,9.25
2023-05-13T17:32:02.410Z,6.35
2023-05-13T17:34:29.342Z,6.50
2023-05-13T17:36:56.344Z,6.50
2023-05-13T17:39:23.328Z,5.68
2023-05-13T17:41:50.247Z,8.20
2023-05-13T17:44:17.465Z,7.05
2023-05-13T17:46:44.433Z,5.38
2023-05-13T17:49:11.552Z,6.43
2023-05-13T17:51:38.734Z,7.85
2023-05-13T17:54:05.748Z,5.57
2023-05-13T17:56:32.683Z,6.22
2023-05-13T17:58:59.608Z,7.82
2023-05-13T18:01:26.624Z,11.98
2023-05-13T18:03:53.621Z,6.85
2023-05-13T18:06:20.632Z,6.43
2023-05-13T18:08:47.609Z,6.05
2023-05-13T18:11:14.513Z,7.20
2023-05-13T18:13:41.422Z,5.60
2023-05-13T18:16:09.471Z,7.70
2023-05-13T18:18:37.118Z,9.55
2023-05-13T18:21:04.340Z,7.05
2023-05-13T18:23:32.930Z,8.95
2023-05-13T18:26:00.141Z,7.75
2023-05-13T18:28:27.073Z,7.53
2023-05-13T18:30:54.035Z,8.48
2023-05-13T18:33:21.946Z,7.80
2023-05-13T18:35:49.271Z,7.28
2023-05-13T18:38:16.427Z,6.88
2023-05-13T18:40:43.351Z,7.60
2023-05-13T18:43:10.301Z,6.95
2023-05-13T18:45:37.290Z,7.78
2023-05-13T18:48:04.805Z,9.25
2023-05-13T18:50:32.018Z,9.10
2023-05-13T18:52:58.949Z,9.05
2023-05-13T18:55:25.858Z,9.65
2023-05-13T18:57:52.825Z,8.68
2023-05-13T19:00:20.226Z,7.50
2023-05-13T19:02:47.329Z,8.25
2023-05-13T19:05:14.575Z,6.78
2023-05-13T19:07:41.639Z,9.10
2023-05-13T19:10:08.731Z,7.95
2023-05-13T19:12:35.754Z,7.20
2023-05-13T19:15:02.889Z,8.27
2023-05-13T19:17:31.345Z,9.20
2023-05-13T19:20:00.632Z,7.82
2023-05-13T19:22:27.675Z,10.00
2023-05-13T19:24:54.651Z,9.43
2023-05-13T19:27:22.349Z,9.25
2023-05-13T19:29:49.680Z,7.47
2023-05-13T19:32:16.885Z,11.18
2023-05-13T19:34:43.849Z,12.55
2023-05-13T19:37:10.920Z,8.45
2023-05-13T19:39:37.854Z,6.90
2023-05-13T19:42:04.992Z,8.43
2023-05-13T19:44:32.230Z,7.10
2023-05-13T19:46:59.323Z,11.63
2023-05-13T19:49:26.473Z,7.03
2023-05-13T19:51:53.785Z,9.07
2023-05-13T19:54:20.889Z,9.18
2023-05-13T19:56:47.898Z,8.68
2023-05-13T19:59:14.915Z,8.90
2023-05-13T20:01:42.292Z,8.45
2023-05-13T20:04:09.762Z,12.38
2023-05-13T20:06:37.062Z,10.23
2023-05-13T20:09:04.227Z,13.30
2023-05-13T20:11:31.707Z,9.85
2023-05-13T20:13:59.547Z,11.10
2023-05-13T20:16:26.806Z,12.80
2023-05-13T20:18:53.773Z,13.88
2023-05-13T20:21:20.843Z,10.90
2023-05-13T20:23:47.768Z,14.40
2023-05-13T20:26:14.746Z,11.32
2023-05-13T20:28:41.697Z,13.07
2023-05-13T20:31:08.696Z,18.20
2023-05-13T20:33:35.834Z,15.60
2023-05-13T20:36:02.850Z,12.52
2023-05-13T20:38:29.735Z,12.13
2023-05-13T20:40:56.663Z,17.38
2023-05-13T20:43:23.711Z,15.15
2023-05-13T20:45:50.747Z,16.88
2023-05-13T20:48:17.697Z,15.00
2023-05-13T20:50:44.613Z,16.85
2023-05-13T20:53:11.572Z,17.45
2023-05-13T20:55:38.473Z,24.17
2023-05-13T20:58:05.450Z,21.92
2023-05-13T21:00:32.362Z,24.23
2023-05-13T21:03:00.075Z,25.10
2023-05-13T21:05:27.229Z,26.30
2023-05-13T21:07:54.288Z,27.80
2023-05-13T21:10:21.805Z,26.20
2023-05-13T21:12:49.024Z,21.42
2023-05-13T21:15:16.910Z,21.85
2023-05-13T21:17:44.027Z,25.17
2023-05-13T21:20:12.077Z,25.98
2023-05-13T21:22:39.231Z,24.55
2023-05-13T21:25:07.300Z,27.13
2023-05-13T21:27:34.258Z,24.85
2023-05-13T21:30:01.277Z,25.20
2023-05-13T21:32:28.302Z,27.85
2023-05-13T21:34:56.544Z,31.10
2023-05-13T21:37:25.052Z,25.63
2023-05-13T21:39:52.034Z,32.85
2023-05-13T21:42:19.003Z,29.08
2023-05-13T21:44:46.239Z,29.77
2023-05-13T21:47:13.260Z,30.98
2023-05-13T21:49:40.291Z,34.15
2023-05-13T21:52:07.390Z,28.25
2023-05-13T21:54:34.307Z,26.48
2023-05-13T21:57:01.665Z,28.27
2023-05-13T21:59:28.603Z,29.60
2023-05-13T22:01:55.604Z,30.40
2023-05-13T22:04:25.636Z,25.38
2023-05-13T22:06:53.370Z,29.58
2023-05-13T22:09:20.431Z,30.38
2023-05-13T22:11:47.304Z,31.33
2023-05-13T22:14:14.426Z,27.75
2023-05-13T22:16:41.520Z,30.23
2023-05-13T22:19:08.691Z,26.60
2023-05-13T22:21:36.267Z,30.73
2023-05-13T22:24:05.267Z,29.10
2023-05-13T22:26:33.357Z,32.83
2023-05-13T22:29:00.302Z,31.75
2023-05-13T22:31:27.348Z,26.52
2023-05-13T22:33:54.427Z,30.00
2023-05-13T22:36:21.504Z,28.17
2023-05-13T22:38:48.459Z,35.28
2023-05-13T22:41:15.441Z,27.90
2023-05-13T22:43:42.328Z,28.10
2023-05-13T22:46:09.243Z,30.42
2023-05-13T22:48:36.223Z,26.23
2023-05-13T22:51:03.233Z,31.70
2023-05-13T22:53:30.167Z,27.33
2023-05-13T22:55:57.428Z,29.02
2023-05-13T22:58:24.327Z,29.88
2023-05-13T23:00:51.229Z,32.53
2023-05-13T23:03:18.160Z,30.90
2023-05-13T23:05:45.072Z,32.55
2023-05-13T23:08:12.702Z,27.58
2023-05-13T23:10:39.632Z,33.22
2023-05-13T23:13:06.574Z,28.50
2023-05-13T23:15:33.617Z,33.80
2023-05-13T23:18:00.747Z,30.52
2023-05-13T23:20:27.705Z,32.97
2023-05-13T23:22:55.729Z,32.50
2023-05-13T23:25:22.732Z,29.17
2023-05-13T23:27:51.533Z,33.28
2023-05-13T23:30:18.668Z,27.45
2023-05-13T23:32:46.511Z,31.25
2023-05-13T23:35:13.464Z,33.95
2023-05-13T23:37:40.639Z,37.97
2023-05-13T23:40:08.372Z,36.35
2023-05-13T23:42:35.305Z,35.35
2023-05-13T23:45:02.353Z,30.58
2023-05-13T23:47:30.130Z,29.73
2023-05-13T23:49:58.334Z,35.40
2023-05-13T23:52:25.304Z,31.17
2023-05-13T23:54:52.249Z,30.38
2023-05-13T23:57:19.467Z,36.47
2023-05-13T23:59:46.407Z,35.15
